In Rescue
 
Open Full Screen Window  High Contrast Mode
November 25, 2020 3:59 AM CST
Weather Information
Wind Direction
  ---
Wind Speed
  00 kt (0 mph)
Wind Gust
  00 kt (0 mph)
Altimeter
29.89 in
Visibility
7 SM
Temperature
01° C
34° F
Dewpoint
01° C
34° F
Humidity
100%
1hr Rain Fall
00.00 in.
24hr Rain Fall
00.00 in.
Sky Condition
Overcast @ 1,300 ft
MVFR

METAR K04W 250959Z AUTO 00000KT 7SM OVC013 01/01 A2989 RMK AO2

FAA Disclaimer: The data displayed is for advisory purposes only and is not to be used for flight planning or operations.